createdAt,value
2019-03-12T00:02:04.354Z,7.39
2019-03-12T00:07:25.628Z,7.05
2019-03-12T00:12:46.823Z,6.85
2019-03-12T00:18:08.235Z,6.80
2019-03-12T00:23:29.564Z,6.88
2019-03-12T00:28:50.637Z,6.87
2019-03-12T00:34:12.176Z,6.92
2019-03-12T00:39:33.426Z,6.89
2019-03-12T00:44:54.585Z,6.89
2019-03-12T00:50:15.709Z,6.88
2019-03-12T00:55:36.879Z,6.85
2019-03-12T01:00:58.102Z,6.90
2019-03-12T01:06:19.290Z,6.93
2019-03-12T01:11:40.491Z,6.99
2019-03-12T01:17:03.141Z,7.01
2019-03-12T01:22:24.149Z,6.93
2019-03-12T01:27:45.454Z,7.01
2019-03-12T01:33:07.845Z,6.99
2019-03-12T01:38:28.687Z,7.03
2019-03-12T01:43:49.817Z,6.95
2019-03-12T01:49:11.740Z,6.78
2019-03-12T01:54:32.716Z,6.64
2019-03-12T01:59:53.959Z,6.64
2019-03-12T02:05:15.306Z,6.56
2019-03-12T02:10:36.515Z,6.47
2019-03-12T02:15:57.714Z,6.39
2019-03-12T02:21:19.201Z,6.33
2019-03-12T02:26:40.538Z,6.22
2019-03-12T02:32:03.701Z,6.08
2019-03-12T02:37:25.335Z,6.17
2019-03-12T02:42:47.689Z,6.29
2019-03-12T02:48:09.336Z,6.16
2019-03-12T02:53:30.589Z,6.10
2019-03-12T02:58:51.745Z,6.05
2019-03-12T03:04:12.797Z,6.10
2019-03-12T03:09:33.723Z,5.94
2019-03-12T03:14:54.754Z,6.04
2019-03-12T03:20:20.911Z,5.95
2019-03-12T03:25:42.052Z,5.91
2019-03-12T03:31:05.548Z,5.90
2019-03-12T03:36:26.845Z,5.95
2019-03-12T03:41:48.217Z,6.00
2019-03-12T03:47:09.602Z,5.88
2019-03-12T03:52:30.686Z,5.82
2019-03-12T03:57:51.720Z,6.02
2019-03-12T04:03:18.977Z,6.03
2019-03-12T04:08:42.837Z,6.08
2019-03-12T04:14:04.364Z,6.18
2019-03-12T04:19:27.395Z,6.28
2019-03-12T04:24:50.586Z,6.21
2019-03-12T04:30:12.502Z,6.22
2019-03-12T04:35:36.036Z,6.23
2019-03-12T04:40:57.482Z,6.30
2019-03-12T04:46:18.967Z,6.27
2019-03-12T04:51:40.081Z,6.29
2019-03-12T04:57:01.661Z,6.24
2019-03-12T05:02:22.979Z,6.25
2019-03-12T05:07:44.931Z,6.17
2019-03-12T05:13:08.548Z,6.21
2019-03-12T05:18:30.584Z,6.21
2019-03-12T05:23:52.376Z,6.22
2019-03-12T05:29:16.114Z,6.20
2019-03-12T05:34:38.911Z,6.14
2019-03-12T05:40:00.637Z,6.10
2019-03-12T05:45:21.989Z,5.92
2019-03-12T05:50:48.113Z,5.71
2019-03-12T05:56:09.834Z,5.68
2019-03-12T06:01:33.132Z,5.57
2019-03-12T06:06:54.608Z,5.21
2019-03-12T06:12:15.844Z,4.90
2019-03-12T06:17:36.936Z,4.70
2019-03-12T06:22:58.662Z,4.81
2019-03-12T06:28:20.835Z,4.73
2019-03-12T06:33:57.124Z,4.80
2019-03-12T06:39:25.306Z,5.01
2019-03-12T06:45:08.575Z,5.07
2019-03-12T06:50:49.544Z,5.16
2019-03-12T06:56:36.420Z,5.06
2019-03-12T07:02:06.048Z,5.01
2019-03-12T07:07:45.987Z,4.95
2019-03-12T07:13:33.682Z,4.80
2019-03-12T07:19:17.333Z,4.91
2019-03-12T07:25:03.713Z,4.96
2019-03-12T07:30:44.723Z,5.05
2019-03-12T07:36:34.381Z,5.10
2019-03-12T07:42:13.804Z,5.15
2019-03-12T07:47:54.968Z,5.07
2019-03-12T07:53:30.185Z,5.07
2019-03-12T07:59:01.139Z,5.03
2019-03-12T08:04:43.437Z,4.95
2019-03-12T08:10:16.763Z,4.95
2019-03-12T08:15:50.484Z,4.92
2019-03-12T08:21:50.379Z,4.85
2019-03-12T08:27:20.320Z,4.77
2019-03-12T08:33:07.181Z,4.80
2019-03-12T08:38:57.149Z,4.77
2019-03-12T08:44:10.309Z,4.76
2019-03-12T08:49:41.652Z,4.88
2019-03-12T08:55:04.714Z,4.91
2019-03-12T09:00:36.763Z,5.00
2019-03-12T09:06:06.134Z,5.12
2019-03-12T09:11:19.166Z,5.13
2019-03-12T09:16:56.343Z,5.07
2019-03-12T09:22:16.643Z,5.05
2019-03-12T09:27:33.062Z,5.05
2019-03-12T09:33:13.172Z,5.00
2019-03-12T09:38:35.753Z,4.96
2019-03-12T09:44:13.432Z,5.08
2019-03-12T09:49:38.876Z,5.11
2019-03-12T09:54:58.969Z,5.04
2019-03-12T10:00:30.076Z,5.03
2019-03-12T10:05:50.551Z,5.10
2019-03-12T10:11:09.936Z,5.16
2019-03-12T10:16:34.988Z,5.35
2019-03-12T10:22:01.654Z,5.23
2019-03-12T10:33:24.310Z,5.50
2019-03-12T10:39:28.544Z,5.46
2019-03-12T10:45:02.782Z,5.72
2019-03-12T10:50:36.730Z,5.79
2019-03-12T10:56:13.044Z,5.78
2019-03-12T11:01:52.526Z,5.62
2019-03-12T11:07:16.791Z,5.61
2019-03-12T11:12:37.696Z,5.78
2019-03-12T11:18:12.649Z,5.74
2019-03-12T11:23:34.114Z,5.82
2019-03-12T11:28:49.156Z,5.99
2019-03-12T11:33:52.420Z,5.99
2019-03-12T11:38:56.684Z,5.86
2019-03-12T11:44:00.037Z,5.91
2019-03-12T11:49:06.153Z,5.78
2019-03-12T11:54:50.212Z,5.95
2019-03-12T12:00:56.223Z,6.12
2019-03-12T12:06:24.085Z,5.90
2019-03-12T12:11:28.691Z,5.82
2019-03-12T12:16:31.466Z,5.93
2019-03-12T12:21:34.605Z,5.93
2019-03-12T12:26:37.572Z,6.01
2019-03-12T12:31:40.355Z,5.86
2019-03-12T12:36:44.069Z,5.85
2019-03-12T12:41:46.839Z,5.89
2019-03-12T12:46:50.102Z,5.84
2019-03-12T12:51:57.596Z,5.58
2019-03-12T12:57:02.083Z,5.68
2019-03-12T13:02:05.345Z,5.85
2019-03-12T13:07:08.794Z,5.91
2019-03-12T13:12:11.518Z,6.14
2019-03-12T13:17:14.160Z,6.03
2019-03-12T13:22:17.146Z,5.89
2019-03-12T13:27:20.452Z,6.08
2019-03-12T13:32:23.123Z,6.13
2019-03-12T13:37:26.421Z,6.33
2019-03-12T13:42:29.214Z,6.41
2019-03-12T13:47:31.987Z,5.92
2019-03-12T13:52:34.885Z,5.89
2019-03-12T13:57:37.635Z,6.23
2019-03-12T14:02:40.992Z,6.29
2019-03-12T14:07:43.749Z,6.45
2019-03-12T14:12:48.805Z,6.43
2019-03-12T14:17:51.751Z,6.40
2019-03-12T14:22:54.695Z,6.01
2019-03-12T14:27:57.504Z,6.24
2019-03-12T14:33:00.282Z,6.20
2019-03-12T14:38:04.081Z,6.20
2019-03-12T14:43:07.097Z,6.56
2019-03-12T14:48:39.245Z,6.53
2019-03-12T14:53:42.219Z,6.28
2019-03-12T14:58:46.094Z,6.13
2019-03-12T15:03:49.329Z,6.23
2019-03-12T15:08:52.125Z,6.15
2019-03-12T15:13:54.843Z,6.12
2019-03-12T15:18:57.458Z,6.21
2019-03-12T15:24:00.178Z,6.22
2019-03-12T15:29:21.548Z,6.20
2019-03-12T15:34:42.641Z,6.26
2019-03-12T15:40:06.172Z,6.39
2019-03-12T15:45:27.205Z,6.51
2019-03-12T15:50:48.949Z,6.25
2019-03-12T15:56:10.159Z,6.38
2019-03-12T16:01:31.241Z,6.39
2019-03-12T16:07:01.198Z,6.34
2019-03-12T16:12:15.974Z,6.35
2019-03-12T16:17:37.016Z,6.18
2019-03-12T16:22:58.781Z,6.15
2019-03-12T16:28:19.988Z,6.19
2019-03-12T16:33:41.162Z,6.06
2019-03-12T16:39:02.521Z,6.02
2019-03-12T16:44:23.736Z,5.95
2019-03-12T16:49:45.716Z,6.01
2019-03-12T16:55:07.553Z,6.02
2019-03-12T17:00:28.687Z,6.00
2019-03-12T17:05:49.987Z,6.01
2019-03-12T17:11:12.079Z,6.01
2019-03-12T17:16:34.466Z,5.97
2019-03-12T17:21:56.462Z,6.04
2019-03-12T17:27:17.851Z,6.05
2019-03-12T17:32:39.581Z,5.92
2019-03-12T17:38:01.807Z,5.99
2019-03-12T17:43:23.360Z,5.94
2019-03-12T17:48:45.310Z,5.88
2019-03-12T17:54:06.620Z,5.90
2019-03-12T17:59:27.658Z,5.91
2019-03-12T18:04:50.051Z,5.94
2019-03-12T18:10:11.537Z,5.85
2019-03-12T18:15:32.983Z,5.79
2019-03-12T18:20:54.580Z,5.85
2019-03-12T18:26:16.050Z,5.86
2019-03-12T18:31:37.439Z,5.78
2019-03-12T18:36:59.119Z,5.72
2019-03-12T18:42:20.269Z,5.71
2019-03-12T18:47:41.528Z,5.76
2019-03-12T18:53:04.446Z,5.71
2019-03-12T18:58:26.107Z,5.76
2019-03-12T19:03:51.048Z,5.77
2019-03-12T19:09:14.920Z,5.67
2019-03-12T19:14:36.764Z,5.62
2019-03-12T19:19:59.010Z,5.59
2019-03-12T19:25:20.896Z,5.61
2019-03-12T19:30:42.180Z,5.61
2019-03-12T19:36:03.886Z,5.57
2019-03-12T19:41:25.683Z,5.53
2019-03-12T19:46:46.989Z,5.62
2019-03-12T19:52:08.372Z,5.66
2019-03-12T19:57:29.979Z,5.64
2019-03-12T20:02:54.936Z,5.64
2019-03-12T20:08:16.503Z,5.63
2019-03-12T20:14:43.946Z,5.66
2019-03-12T20:20:46.041Z,5.77
2019-03-12T20:26:54.503Z,5.61
2019-03-12T20:32:59.158Z,5.65
2019-03-12T20:39:11.312Z,5.69
2019-03-12T20:45:11.425Z,5.70
2019-03-12T20:51:17.021Z,5.59
2019-03-12T20:57:15.648Z,5.65
2019-03-12T21:03:14.593Z,5.63
2019-03-12T21:09:12.885Z,5.66
2019-03-12T21:15:15.873Z,5.61
2019-03-12T21:21:14.074Z,5.50
2019-03-12T21:27:05.883Z,5.52
2019-03-12T21:32:27.467Z,5.44
2019-03-12T21:37:49.045Z,5.48
2019-03-12T21:43:10.151Z,5.55
2019-03-12T21:48:31.622Z,5.39
2019-03-12T21:53:53.041Z,5.42
2019-03-12T21:59:14.229Z,5.41
2019-03-12T22:04:35.306Z,5.44
2019-03-12T22:09:56.544Z,5.41
2019-03-12T22:15:17.678Z,5.40
2019-03-12T22:20:38.891Z,5.31
2019-03-12T22:25:59.863Z,5.47
2019-03-12T22:31:21.178Z,5.37
2019-03-12T22:36:42.383Z,5.21
2019-03-12T22:42:03.795Z,5.20
2019-03-12T22:47:25.091Z,5.23
2019-03-12T22:52:47.443Z,5.13
2019-03-12T22:58:08.497Z,5.09
2019-03-12T23:03:29.719Z,5.17
2019-03-12T23:08:50.944Z,5.10
2019-03-12T23:14:12.057Z,4.97
2019-03-12T23:19:33.245Z,4.91
2019-03-12T23:24:54.330Z,4.82
2019-03-12T23:30:15.649Z,4.80
2019-03-12T23:35:37.055Z,4.75
2019-03-12T23:40:58.270Z,4.73
2019-03-12T23:46:19.942Z,4.73
2019-03-12T23:51:41.293Z,4.71
2019-03-12T23:57:02.698Z,4.72
